createdAt,value
2022-12-08T00:01:22.588Z,17.20
2022-12-08T00:03:50.421Z,7.80
2022-12-08T00:06:53.706Z,5.67
2022-12-08T00:09:41.512Z,8.50
2022-12-08T00:12:13.915Z,9.57
2022-12-08T00:14:46.893Z,9.47
2022-12-08T00:17:15.876Z,6.00
2022-12-08T00:19:43.968Z,5.73
2022-12-08T00:22:12.502Z,8.10
2022-12-08T00:24:40.786Z,11.33
2022-12-08T00:27:09.326Z,6.70
2022-12-08T00:29:37.191Z,11.70
2022-12-08T00:32:04.909Z,11.53
2022-12-08T00:34:33.281Z,9.70
2022-12-08T00:37:00.507Z,8.17
2022-12-08T00:39:27.859Z,8.97
2022-12-08T00:42:12.813Z,3.93
2022-12-08T00:44:40.939Z,7.63
2022-12-08T00:47:07.939Z,4.83
2022-12-08T00:49:35.039Z,8.47
2022-12-08T00:52:02.122Z,9.57
2022-12-08T00:54:29.212Z,6.47
2022-12-08T00:56:56.332Z,9.03
2022-12-08T00:59:23.305Z,8.03
2022-12-08T01:01:50.348Z,13.20
2022-12-08T01:04:19.246Z,7.67
2022-12-08T01:06:46.994Z,7.17
2022-12-08T01:09:15.375Z,13.77
2022-12-08T01:11:44.574Z,11.03
2022-12-08T01:14:12.531Z,7.47
2022-12-08T01:16:41.620Z,10.37
2022-12-08T01:19:11.332Z,8.17
2022-12-08T01:21:38.384Z,6.00
2022-12-08T01:24:05.802Z,7.70
2022-12-08T01:26:32.806Z,8.77
2022-12-08T01:29:00.104Z,4.00
2022-12-08T01:31:27.314Z,6.03
2022-12-08T01:33:54.344Z,8.27
2022-12-08T01:36:30.496Z,8.30
2022-12-08T01:39:00.009Z,4.93
2022-12-08T01:41:32.433Z,11.37
2022-12-08T01:44:08.332Z,8.93
2022-12-08T01:46:38.317Z,8.17
2022-12-08T01:49:05.292Z,7.57
2022-12-08T01:51:38.510Z,7.07
2022-12-08T01:54:07.045Z,7.03
2022-12-08T01:56:42.763Z,5.93
2022-12-08T01:59:11.866Z,12.07
2022-12-08T02:01:39.364Z,7.43
2022-12-08T02:04:06.870Z,7.47
2022-12-08T02:06:39.885Z,7.97
2022-12-08T02:09:07.467Z,8.93
2022-12-08T02:11:34.555Z,7.27
2022-12-08T02:14:08.390Z,5.03
2022-12-08T02:16:43.410Z,9.02
2022-12-08T02:19:32.349Z,7.90
2022-12-08T02:22:17.516Z,6.80
2022-12-08T02:25:22.193Z,8.40
2022-12-08T02:28:21.161Z,5.60
2022-12-08T02:31:05.389Z,5.10
2022-12-08T02:34:07.755Z,6.33
2022-12-08T02:36:44.309Z,6.10
2022-12-08T02:39:25.068Z,9.47
2022-12-08T02:42:04.438Z,9.43
2022-12-08T02:44:52.762Z,8.13
2022-12-08T02:47:21.918Z,6.17
2022-12-08T02:49:49.136Z,8.70
2022-12-08T02:52:18.918Z,8.73
2022-12-08T02:54:53.994Z,9.70
2022-12-08T02:57:49.222Z,5.23
2022-12-08T03:00:20.149Z,6.43
2022-12-08T03:05:51.160Z,12.77
2022-12-08T03:08:36.192Z,6.20
2022-12-08T03:11:21.062Z,7.90
2022-12-08T03:13:54.344Z,5.30
2022-12-08T03:16:26.607Z,7.27
2022-12-08T03:19:03.637Z,6.20
2022-12-08T03:21:35.258Z,7.77
2022-12-08T03:24:06.866Z,5.03
2022-12-08T03:26:45.904Z,12.97
2022-12-08T03:29:14.082Z,4.60
2022-12-08T03:31:49.469Z,7.43
2022-12-08T03:34:18.302Z,9.40
2022-12-08T03:36:45.803Z,5.03
2022-12-08T03:39:12.848Z,15.13
2022-12-08T03:41:39.777Z,9.70
2022-12-08T03:44:06.931Z,10.00
2022-12-08T03:46:33.960Z,10.63
2022-12-08T03:49:00.997Z,6.20
2022-12-08T03:51:28.296Z,6.73
2022-12-08T03:53:55.331Z,7.37
2022-12-08T03:56:29.738Z,7.80
2022-12-08T03:58:57.036Z,10.13
2022-12-08T04:01:24.482Z,12.90
2022-12-08T04:03:52.154Z,4.17
2022-12-08T04:06:20.249Z,10.50
2022-12-08T04:08:47.996Z,5.70
2022-12-08T04:11:15.709Z,7.30
2022-12-08T04:13:43.387Z,9.90
2022-12-08T04:16:17.050Z,9.77
2022-12-08T04:18:44.239Z,10.27
2022-12-08T04:21:11.528Z,7.03
2022-12-08T04:23:38.527Z,8.90
2022-12-08T04:26:06.556Z,10.07
2022-12-08T04:28:33.942Z,11.20
2022-12-08T04:31:01.303Z,10.13
2022-12-08T04:33:28.410Z,11.67
2022-12-08T04:35:55.487Z,9.33
2022-12-08T04:38:22.863Z,8.60
2022-12-08T04:40:49.903Z,5.83
2022-12-08T04:43:16.921Z,9.17
2022-12-08T04:45:43.940Z,6.17
2022-12-08T04:48:13.286Z,9.67
2022-12-08T04:50:42.923Z,16.33
2022-12-08T04:53:11.168Z,17.43
2022-12-08T04:55:43.940Z,10.53
2022-12-08T04:58:15.020Z,11.17
2022-12-08T05:00:42.391Z,10.00
2022-12-08T05:03:09.981Z,8.63
2022-12-08T05:05:36.995Z,14.70
2022-12-08T05:08:04.794Z,14.30
2022-12-08T05:10:32.617Z,4.37
2022-12-08T05:13:01.054Z,12.80
2022-12-08T05:15:28.394Z,15.20
2022-12-08T05:17:55.484Z,6.07
2022-12-08T05:20:22.620Z,21.03
2022-12-08T05:22:49.730Z,11.83
2022-12-08T05:25:16.752Z,3.77
2022-12-08T05:27:43.905Z,6.60
2022-12-08T05:30:11.145Z,11.33
2022-12-08T05:32:38.156Z,9.43
2022-12-08T05:35:05.628Z,10.37
2022-12-08T05:37:32.601Z,8.20
2022-12-08T05:39:59.717Z,10.23
2022-12-08T05:42:26.673Z,7.67
2022-12-08T05:44:53.717Z,10.07
2022-12-08T05:47:20.781Z,10.70
2022-12-08T05:49:48.440Z,9.80
2022-12-08T05:52:16.998Z,7.60
2022-12-08T05:54:44.416Z,6.63
2022-12-08T05:57:11.654Z,9.40
2022-12-08T05:59:39.315Z,9.60
2022-12-08T06:02:06.527Z,13.17
2022-12-08T06:04:33.680Z,11.03
2022-12-08T06:07:00.651Z,2.73
2022-12-08T06:09:27.719Z,12.17
2022-12-08T06:11:54.668Z,7.60
2022-12-08T06:14:21.722Z,5.10
2022-12-08T06:16:48.779Z,9.47
2022-12-08T06:19:16.069Z,20.03
2022-12-08T06:21:43.018Z,6.77
2022-12-08T06:24:10.320Z,7.43
2022-12-08T06:26:37.795Z,10.50
2022-12-08T06:29:05.138Z,8.37
2022-12-08T06:31:32.262Z,17.70
2022-12-08T06:33:59.350Z,12.80
2022-12-08T06:36:28.266Z,5.43
2022-12-08T06:38:55.723Z,6.70
2022-12-08T06:41:23.089Z,5.93
2022-12-08T06:43:50.150Z,9.37
2022-12-08T06:46:19.679Z,12.33
2022-12-08T06:48:47.243Z,17.23
2022-12-08T06:51:17.172Z,7.93
2022-12-08T06:53:44.645Z,13.50
2022-12-08T06:56:12.137Z,20.80
2022-12-08T06:58:39.202Z,11.53
2022-12-08T07:01:12.468Z,6.77
2022-12-08T07:03:40.889Z,10.17
2022-12-08T07:06:08.006Z,8.93
2022-12-08T07:08:35.262Z,12.33
2022-12-08T07:11:12.383Z,9.90
2022-12-08T07:13:41.239Z,14.27
2022-12-08T07:16:09.963Z,8.27
2022-12-08T07:18:37.795Z,12.50
2022-12-08T07:21:10.859Z,27.90
2022-12-08T07:23:38.347Z,8.33
2022-12-08T07:26:08.443Z,11.07
2022-12-08T07:28:38.278Z,6.28
2022-12-08T07:31:06.508Z,6.90
2022-12-08T07:33:36.206Z,9.23
2022-12-08T07:36:06.800Z,16.43
2022-12-08T07:38:34.141Z,9.82
2022-12-08T07:41:01.511Z,11.27
2022-12-08T07:43:28.543Z,8.17
2022-12-08T07:45:55.679Z,17.00
2022-12-08T07:48:22.956Z,7.50
2022-12-08T07:50:49.932Z,7.93
2022-12-08T07:53:16.851Z,8.07
2022-12-08T07:55:44.399Z,9.53
2022-12-08T07:58:12.251Z,5.63
2022-12-08T08:00:39.298Z,7.47
2022-12-08T08:03:06.608Z,5.93
2022-12-08T08:05:33.581Z,7.90
2022-12-08T08:08:00.591Z,11.17
2022-12-08T08:10:27.698Z,12.67
2022-12-08T08:12:54.863Z,15.43
2022-12-08T08:15:22.093Z,5.50
2022-12-08T08:17:53.522Z,10.30
2022-12-08T08:20:21.827Z,10.93
2022-12-08T08:22:50.707Z,16.47
2022-12-08T08:25:18.776Z,7.10
2022-12-08T08:27:46.920Z,8.30
2022-12-08T08:30:19.938Z,12.57
2022-12-08T08:32:48.132Z,8.13
2022-12-08T08:35:15.220Z,9.33
2022-12-08T08:37:47.210Z,8.37
2022-12-08T08:40:16.774Z,8.00
2022-12-08T08:42:43.795Z,5.53
2022-12-08T08:45:11.311Z,6.40
2022-12-08T08:47:38.290Z,9.57
2022-12-08T08:50:06.110Z,9.43
2022-12-08T08:52:33.411Z,8.57
2022-12-08T08:55:00.461Z,9.47
2022-12-08T08:57:27.547Z,10.37
2022-12-08T08:59:54.985Z,11.63
2022-12-08T09:02:22.291Z,5.40
2022-12-08T09:04:49.558Z,8.80
2022-12-08T09:07:17.092Z,6.60
2022-12-08T09:09:44.136Z,11.87
2022-12-08T09:12:12.203Z,16.43
2022-12-08T09:14:39.429Z,5.47
2022-12-08T09:17:07.769Z,11.10
2022-12-08T09:19:35.135Z,8.23
2022-12-08T09:22:02.207Z,11.00
2022-12-08T09:24:29.228Z,11.27
2022-12-08T09:26:56.261Z,9.27
2022-12-08T09:29:23.239Z,11.47
2022-12-08T09:31:50.330Z,10.93
2022-12-08T09:34:17.389Z,9.43
2022-12-08T09:36:44.397Z,8.23
2022-12-08T09:39:11.419Z,9.33
2022-12-08T09:41:48.313Z,9.73
2022-12-08T09:44:31.360Z,7.70
2022-12-08T09:47:00.643Z,11.20
2022-12-08T09:49:41.024Z,14.80
2022-12-08T09:52:20.084Z,12.60
2022-12-08T09:54:47.378Z,12.67
2022-12-08T09:57:20.038Z,10.97
2022-12-08T09:59:55.761Z,18.97
2022-12-08T10:02:29.348Z,12.73
2022-12-08T10:04:57.900Z,10.73
2022-12-08T10:07:39.543Z,9.43
2022-12-08T10:10:34.143Z,12.07
2022-12-08T10:13:04.088Z,14.90
2022-12-08T10:15:42.034Z,17.97
2022-12-08T10:18:16.244Z,11.93
2022-12-08T10:20:45.650Z,19.30
2022-12-08T10:23:12.569Z,15.93
2022-12-08T10:26:05.255Z,9.67
2022-12-08T10:28:34.327Z,10.50
2022-12-08T10:31:01.664Z,10.50
2022-12-08T10:33:31.584Z,16.67
2022-12-08T10:36:01.949Z,11.37
2022-12-08T10:38:28.910Z,9.50
2022-12-08T10:41:04.712Z,18.00
2022-12-08T10:43:33.383Z,11.90
2022-12-08T10:46:16.010Z,8.90
2022-12-08T10:48:51.706Z,8.97
2022-12-08T10:51:35.486Z,20.40
2022-12-08T10:54:03.369Z,15.90
2022-12-08T10:56:31.984Z,19.67
2022-12-08T10:59:25.901Z,11.23
2022-12-08T11:01:55.610Z,5.60
2022-12-08T11:04:37.392Z,8.47
2022-12-08T11:07:13.169Z,15.20
2022-12-08T11:09:48.714Z,11.10
2022-12-08T11:12:21.523Z,13.40
2022-12-08T11:14:50.329Z,12.83
2022-12-08T11:17:23.118Z,11.00
2022-12-08T11:20:19.547Z,11.30
2022-12-08T11:22:55.738Z,11.67
2022-12-08T11:25:25.334Z,13.97
2022-12-08T11:27:58.650Z,10.57
2022-12-08T11:30:30.759Z,12.90
2022-12-08T11:33:19.765Z,12.93
2022-12-08T11:36:09.642Z,14.53
2022-12-08T11:38:42.022Z,15.07
2022-12-08T11:41:15.805Z,13.80
2022-12-08T11:43:55.826Z,15.10
2022-12-08T11:46:32.628Z,15.97
2022-12-08T11:49:06.804Z,8.43
2022-12-08T11:51:44.217Z,14.10
2022-12-08T11:54:24.240Z,14.20
2022-12-08T11:56:59.417Z,12.13
2022-12-08T11:59:39.620Z,16.80
2022-12-08T12:02:14.650Z,15.55
2022-12-08T12:05:07.905Z,7.10
2022-12-08T12:07:56.097Z,8.50
2022-12-08T12:10:25.892Z,13.70
2022-12-08T12:13:10.079Z,11.63
2022-12-08T12:15:37.006Z,9.07
2022-12-08T12:18:25.131Z,10.53
2022-12-08T12:21:12.389Z,11.90
2022-12-08T12:23:44.818Z,10.57
2022-12-08T12:26:22.939Z,11.43
2022-12-08T12:28:58.065Z,12.80
2022-12-08T12:31:29.679Z,12.77
2022-12-08T12:34:06.591Z,15.40
2022-12-08T12:36:47.591Z,8.27
2022-12-08T12:39:15.639Z,13.45
2022-12-08T12:41:52.350Z,10.83
2022-12-08T12:44:19.335Z,10.67
2022-12-08T12:46:46.364Z,16.30
2022-12-08T12:49:38.022Z,11.73
2022-12-08T12:52:10.779Z,15.17
2022-12-08T12:54:42.818Z,14.40
2022-12-08T12:57:09.738Z,12.40
2022-12-08T12:59:44.127Z,14.17
2022-12-08T13:02:27.600Z,16.60
2022-12-08T13:05:03.756Z,8.50
2022-12-08T13:07:49.444Z,13.03
2022-12-08T13:10:21.858Z,11.40
2022-12-08T13:13:16.937Z,10.80
2022-12-08T13:15:46.902Z,11.30
2022-12-08T13:18:23.895Z,13.70
2022-12-08T13:20:54.844Z,9.77
2022-12-08T13:26:22.171Z,10.17
2022-12-08T13:29:01.612Z,16.60
2022-12-08T13:31:41.642Z,14.57
2022-12-08T13:34:16.792Z,11.30
2022-12-08T13:36:59.841Z,17.03
2022-12-08T13:39:42.344Z,11.90
2022-12-08T13:42:12.486Z,18.53
2022-12-08T13:45:19.055Z,15.55
2022-12-08T13:47:54.366Z,11.30
2022-12-08T13:59:09.901Z,15.77
2022-12-08T14:01:44.959Z,16.07
2022-12-08T14:04:54.424Z,14.57
2022-12-08T14:07:06.355Z,12.17
2022-12-08T14:09:36.914Z,10.80
2022-12-08T14:12:17.613Z,12.48
2022-12-08T14:15:03.866Z,14.60
2022-12-08T14:17:34.997Z,15.80
2022-12-08T14:20:10.124Z,12.40
2022-12-08T14:22:40.216Z,13.63
2022-12-08T14:25:13.689Z,14.73
2022-12-08T14:27:40.959Z,13.47
2022-12-08T14:30:10.796Z,12.33
2022-12-08T14:32:40.375Z,15.40
2022-12-08T14:35:07.871Z,13.77
2022-12-08T14:37:42.387Z,29.80
2022-12-08T14:40:22.692Z,13.97
2022-12-08T14:43:06.120Z,14.20
2022-12-08T14:45:34.988Z,10.70
2022-12-08T14:48:27.831Z,14.20
2022-12-08T14:51:01.929Z,12.13
2022-12-08T14:53:45.245Z,18.00
2022-12-08T14:56:27.525Z,13.17
2022-12-08T14:59:25.565Z,10.07
2022-12-08T15:01:54.944Z,25.33
2022-12-08T15:04:28.645Z,20.07
2022-12-08T15:07:17.378Z,17.50
2022-12-08T15:09:50.174Z,27.87
2022-12-08T15:12:26.664Z,10.73
2022-12-08T15:15:17.780Z,23.37
2022-12-08T15:17:47.917Z,27.05
2022-12-08T15:20:35.611Z,20.45
2022-12-08T15:23:03.320Z,18.83
2022-12-08T15:25:30.519Z,23.70
2022-12-08T15:27:58.160Z,17.87
2022-12-08T15:30:28.762Z,15.50
2022-12-08T15:32:56.532Z,16.17
2022-12-08T15:35:23.636Z,14.13
2022-12-08T15:37:50.709Z,19.43
2022-12-08T15:40:20.632Z,16.10
2022-12-08T15:42:47.937Z,14.53
2022-12-08T15:45:17.186Z,25.33
2022-12-08T15:47:45.939Z,16.57
2022-12-08T15:50:21.948Z,11.67
2022-12-08T15:52:50.220Z,14.53
2022-12-08T15:55:19.527Z,16.13
2022-12-08T15:58:52.002Z,17.63
2022-12-08T16:00:54.450Z,15.57
2022-12-08T16:09:28.425Z,19.70
2022-12-08T16:12:15.063Z,18.43
2022-12-08T16:17:31.915Z,19.60
2022-12-08T16:20:00.173Z,18.00
2022-12-08T16:22:54.178Z,13.03
2022-12-08T16:25:19.396Z,18.53
2022-12-08T16:28:05.514Z,16.55
2022-12-08T16:30:36.241Z,11.67
2022-12-08T16:33:03.462Z,15.60
2022-12-08T16:35:31.341Z,20.73
2022-12-08T16:37:58.361Z,20.93
2022-12-08T16:40:25.351Z,28.67
2022-12-08T16:42:52.334Z,21.70
2022-12-08T16:45:25.390Z,21.43
2022-12-08T16:48:01.660Z,20.97
2022-12-08T16:50:34.182Z,19.23
2022-12-08T16:53:07.094Z,21.47
2022-12-08T16:55:34.506Z,25.30
2022-12-08T16:58:02.940Z,21.10
2022-12-08T17:00:31.599Z,18.17
2022-12-08T17:02:59.050Z,21.40
2022-12-08T17:05:26.812Z,19.43
2022-12-08T17:07:55.019Z,18.60
2022-12-08T17:10:25.279Z,21.23
2022-12-08T17:12:53.196Z,22.35
2022-12-08T17:15:23.461Z,29.00
2022-12-08T17:17:51.359Z,29.20
2022-12-08T17:20:24.595Z,23.63
2022-12-08T17:22:55.333Z,15.17
2022-12-08T17:25:22.381Z,29.30
2022-12-08T17:27:49.361Z,20.90
2022-12-08T17:30:35.294Z,29.57
2022-12-08T17:33:02.271Z,24.13
2022-12-08T17:35:29.340Z,23.27
2022-12-08T17:37:56.340Z,20.40
2022-12-08T17:40:26.888Z,26.77
2022-12-08T17:42:55.318Z,26.33
2022-12-08T17:45:22.334Z,27.73
2022-12-08T17:47:49.297Z,29.60
2022-12-08T17:50:16.364Z,25.23
2022-12-08T17:52:43.331Z,22.97
2022-12-08T17:55:10.667Z,20.33
2022-12-08T17:57:37.671Z,26.90
2022-12-08T18:00:05.905Z,27.40
2022-12-08T18:02:39.107Z,24.10
2022-12-08T18:05:06.588Z,22.20
2022-12-08T18:07:33.532Z,29.87
2022-12-08T18:10:00.511Z,23.23
2022-12-08T18:12:27.507Z,22.70
2022-12-08T18:14:54.567Z,25.10
2022-12-08T18:17:21.699Z,24.67
2022-12-08T18:19:48.775Z,33.37
2022-12-08T18:22:16.138Z,30.70
2022-12-08T18:24:44.337Z,22.40
2022-12-08T18:27:11.386Z,18.57
2022-12-08T18:29:38.798Z,32.50
2022-12-08T18:32:06.419Z,27.67
2022-12-08T18:34:34.288Z,20.80
2022-12-08T18:37:01.422Z,32.03
2022-12-08T18:39:31.398Z,35.50
2022-12-08T18:42:01.359Z,27.60
2022-12-08T18:44:28.891Z,22.85
2022-12-08T18:46:55.911Z,22.53
2022-12-08T18:49:22.905Z,25.33
2022-12-08T18:51:49.871Z,25.90
2022-12-08T18:54:16.824Z,25.60
2022-12-08T18:56:43.799Z,25.47
2022-12-08T18:59:12.489Z,42.33
2022-12-08T19:01:40.476Z,25.57
2022-12-08T19:04:27.820Z,24.93
2022-12-08T19:06:56.106Z,24.50
2022-12-08T19:09:24.567Z,28.10
2022-12-08T19:11:51.636Z,29.17
2022-12-08T19:14:24.030Z,30.97
2022-12-08T19:16:54.464Z,31.10
2022-12-08T19:19:21.662Z,30.33
2022-12-08T19:21:48.702Z,30.50
2022-12-08T19:24:16.129Z,29.53
2022-12-08T19:26:43.771Z,37.40
2022-12-08T19:29:11.610Z,28.27
2022-12-08T19:31:40.725Z,30.10
2022-12-08T19:34:09.355Z,34.27
2022-12-08T19:36:42.324Z,35.90
2022-12-08T19:39:36.657Z,28.70
2022-12-08T19:42:24.591Z,29.87
2022-12-08T19:44:54.678Z,28.20
2022-12-08T19:47:24.086Z,30.30
2022-12-08T19:49:51.943Z,30.33
2022-12-08T19:52:19.278Z,35.17
2022-12-08T19:54:46.569Z,29.80
2022-12-08T19:57:13.691Z,33.30
2022-12-08T19:59:40.735Z,37.80
2022-12-08T20:02:07.909Z,33.60
2022-12-08T20:04:35.057Z,29.80
2022-12-08T20:07:02.232Z,29.27
2022-12-08T20:09:29.353Z,29.97
2022-12-08T20:11:56.345Z,32.83
2022-12-08T20:14:23.698Z,30.47
2022-12-08T20:16:51.248Z,39.27
2022-12-08T20:19:18.617Z,31.17
2022-12-08T20:21:45.974Z,35.70
2022-12-08T20:24:13.030Z,33.50
2022-12-08T20:26:40.081Z,32.70
2022-12-08T20:29:07.100Z,35.00
2022-12-08T20:31:34.329Z,36.00
2022-12-08T20:34:02.025Z,28.83
2022-12-08T20:36:29.547Z,29.33
2022-12-08T20:38:56.663Z,35.80
2022-12-08T20:41:23.934Z,31.93
2022-12-08T20:43:51.954Z,34.50
2022-12-08T20:46:20.361Z,31.17
2022-12-08T20:48:47.567Z,35.80
2022-12-08T20:51:17.083Z,35.97
2022-12-08T20:53:44.750Z,30.47
2022-12-08T20:56:19.946Z,35.67
2022-12-08T20:58:47.443Z,36.77
2022-12-08T21:01:17.688Z,25.93
2022-12-08T21:03:45.918Z,37.30
2022-12-08T21:06:13.593Z,35.90
2022-12-08T21:08:42.285Z,27.87
2022-12-08T21:11:10.424Z,35.63
2022-12-08T21:13:38.708Z,43.03
2022-12-08T21:16:09.286Z,31.27
2022-12-08T21:18:39.612Z,36.95
2022-12-08T21:21:14.319Z,31.95
2022-12-08T21:23:42.410Z,36.33
2022-12-08T21:26:14.684Z,39.07
2022-12-08T21:28:42.602Z,38.07
2022-12-08T21:31:20.299Z,41.23
2022-12-08T21:33:48.546Z,37.50
2022-12-08T21:36:18.717Z,38.50
2022-12-08T21:38:47.274Z,39.65
2022-12-08T21:41:38.101Z,34.07
2022-12-08T21:44:06.098Z,36.13
2022-12-08T21:46:33.143Z,26.13
2022-12-08T21:49:00.332Z,34.47
2022-12-08T21:51:27.461Z,28.00
2022-12-08T21:53:54.726Z,26.87
2022-12-08T21:56:21.745Z,27.03
2022-12-08T21:58:49.812Z,29.80
2022-12-08T22:01:17.034Z,26.40
2022-12-08T22:03:44.217Z,26.33
2022-12-08T22:06:13.855Z,34.63
2022-12-08T22:08:41.919Z,36.33
2022-12-08T22:11:10.365Z,29.30
2022-12-08T22:13:39.769Z,25.50
2022-12-08T22:16:09.947Z,40.37
2022-12-08T22:18:37.660Z,55.72
2022-12-08T22:21:09.793Z,51.17
2022-12-08T22:23:37.291Z,38.13
2022-12-08T22:26:05.679Z,35.20
2022-12-08T22:28:35.801Z,37.57
2022-12-08T22:31:16.895Z,36.50
2022-12-08T22:33:44.320Z,32.57
2022-12-08T22:36:23.475Z,33.70
2022-12-08T22:38:51.571Z,30.17
2022-12-08T22:41:19.272Z,27.83
2022-12-08T22:43:47.387Z,29.70
2022-12-08T22:46:20.647Z,40.07
2022-12-08T22:48:48.094Z,35.73
2022-12-08T22:51:15.840Z,30.83
2022-12-08T22:53:43.260Z,40.67
2022-12-08T22:56:12.801Z,29.03
2022-12-08T22:58:41.368Z,33.60
2022-12-08T23:01:09.026Z,29.90
2022-12-08T23:03:36.203Z,41.17
2022-12-08T23:06:11.651Z,34.90
2022-12-08T23:08:38.989Z,36.37
2022-12-08T23:11:06.260Z,34.43
2022-12-08T23:13:33.229Z,27.17
2022-12-08T23:16:00.240Z,28.07
2022-12-08T23:18:27.280Z,32.23
2022-12-08T23:20:54.408Z,33.87
2022-12-08T23:23:21.640Z,36.13
2022-12-08T23:25:48.623Z,30.97
2022-12-08T23:28:15.747Z,37.47
2022-12-08T23:30:42.790Z,27.53
2022-12-08T23:33:09.897Z,32.00
2022-12-08T23:35:36.950Z,29.57
2022-12-08T23:38:04.692Z,37.67
2022-12-08T23:40:31.927Z,35.80
2022-12-08T23:42:59.165Z,32.20
2022-12-08T23:45:26.339Z,30.13
2022-12-08T23:47:53.328Z,31.10
2022-12-08T23:50:20.329Z,32.00
2022-12-08T23:52:47.343Z,35.77
2022-12-08T23:55:14.529Z,35.07
2022-12-08T23:57:41.522Z,33.33
